sensor_id;sensor_type;location;lat;lon;timestamp;pressure;altitude;pressure_sealevel;temperature;humidity
55685;BME280;41883;49.544;8.646;2022-08-01T00:01:07;100482.31;;;22.54;49.98
55685;BME280;41883;49.544;8.646;2022-08-01T00:03:34;100479.63;;;22.54;49.74
55685;BME280;41883;49.544;8.646;2022-08-01T00:06:00;100479.41;;;22.55;49.43
55685;BME280;41883;49.544;8.646;2022-08-01T00:08:27;100482.53;;;22.52;49.46
55685;BME280;41883;49.544;8.646;2022-08-01T00:10:52;100481.59;;;22.46;49.66
55685;BME280;41883;49.544;8.646;2022-08-01T00:13:19;100476.19;;;22.35;49.90
55685;BME280;41883;49.544;8.646;2022-08-01T00:15:46;100476.88;;;22.30;50.09
55685;BME280;41883;49.544;8.646;2022-08-01T00:18:12;100477.34;;;22.27;50.31
55685;BME280;41883;49.544;8.646;2022-08-01T00:20:38;100476.75;;;22.25;49.72
55685;BME280;41883;49.544;8.646;2022-08-01T00:23:04;100480.25;;;22.25;50.66
55685;BME280;41883;49.544;8.646;2022-08-01T00:25:30;100487.31;;;22.26;50.71
55685;BME280;41883;49.544;8.646;2022-08-01T00:27:56;100488.22;;;22.20;50.21
55685;BME280;41883;49.544;8.646;2022-08-01T00:30:23;100492.16;;;22.18;50.70
55685;BME280;41883;49.544;8.646;2022-08-01T00:32:49;100485.13;;;22.17;51.21
55685;BME280;41883;49.544;8.646;2022-08-01T00:35:17;100502.19;;;22.11;51.09
55685;BME280;41883;49.544;8.646;2022-08-01T00:37:43;100500.66;;;22.03;50.95
55685;BME280;41883;49.544;8.646;2022-08-01T00:40:10;100497.31;;;21.89;51.72
55685;BME280;41883;49.544;8.646;2022-08-01T00:42:39;100497.63;;;21.81;51.68
55685;BME280;41883;49.544;8.646;2022-08-01T00:45:05;100503.31;;;21.73;51.81
55685;BME280;41883;49.544;8.646;2022-08-01T00:47:31;100503.16;;;21.68;52.73
55685;BME280;41883;49.544;8.646;2022-08-01T00:49:58;100501.63;;;21.60;53.07
55685;BME280;41883;49.544;8.646;2022-08-01T00:52:24;100496.91;;;21.55;53.24
55685;BME280;41883;49.544;8.646;2022-08-01T00:54:51;100503.78;;;21.51;52.91
55685;BME280;41883;49.544;8.646;2022-08-01T00:57:17;100510.50;;;21.42;53.73
55685;BME280;41883;49.544;8.646;2022-08-01T00:59:43;100507.63;;;21.37;54.58
55685;BME280;41883;49.544;8.646;2022-08-01T01:02:09;100499.78;;;21.35;53.87
55685;BME280;41883;49.544;8.646;2022-08-01T01:04:35;100506.88;;;21.30;53.93
55685;BME280;41883;49.544;8.646;2022-08-01T01:07:12;100502.56;;;21.29;54.27
55685;BME280;41883;49.544;8.646;2022-08-01T01:09:50;100503.38;;;21.29;54.61
55685;BME280;41883;49.544;8.646;2022-08-01T01:15:00;100500.75;;;21.23;54.49
55685;BME280;41883;49.544;8.646;2022-08-01T01:17:32;100499.31;;;21.20;54.55
55685;BME280;41883;49.544;8.646;2022-08-01T01:20:02;100497.31;;;21.15;54.91
55685;BME280;41883;49.544;8.646;2022-08-01T01:25:41;100493.03;;;21.08;54.92
55685;BME280;41883;49.544;8.646;2022-08-01T01:30:44;100497.97;;;21.11;56.55
55685;BME280;41883;49.544;8.646;2022-08-01T01:33:12;100508.66;;;21.17;56.63
55685;BME280;41883;49.544;8.646;2022-08-01T01:35:42;100508.00;;;21.22;56.60
55685;BME280;41883;49.544;8.646;2022-08-01T01:38:16;100506.50;;;21.26;56.78
55685;BME280;41883;49.544;8.646;2022-08-01T01:40:45;100510.97;;;21.32;56.77
55685;BME280;41883;49.544;8.646;2022-08-01T01:43:14;100515.09;;;21.35;56.76
55685;BME280;41883;49.544;8.646;2022-08-01T01:45:42;100517.56;;;21.36;56.88
55685;BME280;41883;49.544;8.646;2022-08-01T01:48:13;100514.28;;;21.34;56.87
55685;BME280;41883;49.544;8.646;2022-08-01T01:50:42;100508.91;;;21.34;56.96
55685;BME280;41883;49.544;8.646;2022-08-01T01:53:10;100518.38;;;21.37;57.01
55685;BME280;41883;49.544;8.646;2022-08-01T01:55:39;100523.34;;;21.40;57.23
55685;BME280;41883;49.544;8.646;2022-08-01T01:58:07;100526.63;;;21.42;56.92
55685;BME280;41883;49.544;8.646;2022-08-01T02:00:35;100525.97;;;21.47;56.98
55685;BME280;41883;49.544;8.646;2022-08-01T02:03:05;100523.66;;;21.50;56.64
55685;BME280;41883;49.544;8.646;2022-08-01T02:05:34;100523.81;;;21.55;56.92
55685;BME280;41883;49.544;8.646;2022-08-01T02:08:02;100526.66;;;21.60;56.52
55685;BME280;41883;49.544;8.646;2022-08-01T02:10:31;100518.56;;;21.60;56.81
55685;BME280;41883;49.544;8.646;2022-08-01T02:12:59;100515.66;;;21.62;56.60
55685;BME280;41883;49.544;8.646;2022-08-01T02:15:27;100521.88;;;21.62;56.69
55685;BME280;41883;49.544;8.646;2022-08-01T02:17:56;100524.78;;;21.61;56.69
55685;BME280;41883;49.544;8.646;2022-08-01T02:20:24;100517.75;;;21.60;56.73
55685;BME280;41883;49.544;8.646;2022-08-01T02:22:54;100525.00;;;21.59;56.64
55685;BME280;41883;49.544;8.646;2022-08-01T02:25:52;100525.22;;;21.58;57.11
55685;BME280;41883;49.544;8.646;2022-08-01T02:28:32;100527.91;;;21.58;57.17
55685;BME280;41883;49.544;8.646;2022-08-01T02:31:06;100527.91;;;21.58;57.01
55685;BME280;41883;49.544;8.646;2022-08-01T02:33:41;100538.22;;;21.61;57.10
55685;BME280;41883;49.544;8.646;2022-08-01T02:36:11;100532.38;;;21.64;57.12
55685;BME280;41883;49.544;8.646;2022-08-01T02:38:41;100528.22;;;21.68;56.96
55685;BME280;41883;49.544;8.646;2022-08-01T02:41:16;100527.53;;;21.73;56.90
55685;BME280;41883;49.544;8.646;2022-08-01T02:43:48;100531.78;;;21.80;56.92
55685;BME280;41883;49.544;8.646;2022-08-01T02:46:23;100530.06;;;21.86;56.76
55685;BME280;41883;49.544;8.646;2022-08-01T02:48:52;100537.22;;;21.92;56.84
55685;BME280;41883;49.544;8.646;2022-08-01T02:51:22;100533.03;;;21.96;56.79
55685;BME280;41883;49.544;8.646;2022-08-01T02:53:53;100536.09;;;22.00;56.57
55685;BME280;41883;49.544;8.646;2022-08-01T02:56:21;100538.34;;;22.03;56.42
55685;BME280;41883;49.544;8.646;2022-08-01T02:58:50;100536.00;;;22.06;56.32
55685;BME280;41883;49.544;8.646;2022-08-01T03:01:17;100537.28;;;22.04;56.15
55685;BME280;41883;49.544;8.646;2022-08-01T03:03:45;100523.22;;;22.02;56.23
55685;BME280;41883;49.544;8.646;2022-08-01T03:06:12;100528.25;;;21.98;56.44
55685;BME280;41883;49.544;8.646;2022-08-01T03:08:39;100532.91;;;21.91;56.42
55685;BME280;41883;49.544;8.646;2022-08-01T03:11:09;100525.13;;;21.83;56.52
55685;BME280;41883;49.544;8.646;2022-08-01T03:13:37;100533.38;;;21.70;57.14
55685;BME280;41883;49.544;8.646;2022-08-01T03:16:05;100526.03;;;21.58;57.12
55685;BME280;41883;49.544;8.646;2022-08-01T03:18:35;100529.72;;;21.46;57.93
55685;BME280;41883;49.544;8.646;2022-08-01T03:21:03;100529.22;;;21.30;57.92
55685;BME280;41883;49.544;8.646;2022-08-01T03:23:31;100527.47;;;21.17;57.95
55685;BME280;41883;49.544;8.646;2022-08-01T03:26:01;100526.78;;;21.04;58.79
55685;BME280;41883;49.544;8.646;2022-08-01T03:28:29;100531.84;;;20.93;58.66
55685;BME280;41883;49.544;8.646;2022-08-01T03:30:57;100530.25;;;20.86;58.81
55685;BME280;41883;49.544;8.646;2022-08-01T03:33:23;100532.19;;;20.78;58.85
55685;BME280;41883;49.544;8.646;2022-08-01T03:35:52;100531.31;;;20.78;59.36
55685;BME280;41883;49.544;8.646;2022-08-01T03:38:23;100531.31;;;20.78;59.48
55685;BME280;41883;49.544;8.646;2022-08-01T03:40:56;100536.88;;;20.83;59.51
55685;BME280;41883;49.544;8.646;2022-08-01T03:43:33;100531.50;;;20.83;60.02
55685;BME280;41883;49.544;8.646;2022-08-01T03:46:06;100531.28;;;20.85;60.16
55685;BME280;41883;49.544;8.646;2022-08-01T03:48:39;100536.44;;;20.86;59.95
55685;BME280;41883;49.544;8.646;2022-08-01T03:51:05;100531.88;;;20.87;59.80
55685;BME280;41883;49.544;8.646;2022-08-01T03:53:36;100539.94;;;20.87;59.89
55685;BME280;41883;49.544;8.646;2022-08-01T03:56:04;100529.19;;;20.87;60.29
55685;BME280;41883;49.544;8.646;2022-08-01T03:58:35;100536.59;;;20.91;59.85
55685;BME280;41883;49.544;8.646;2022-08-01T04:01:02;100526.84;;;20.97;60.20
55685;BME280;41883;49.544;8.646;2022-08-01T04:03:30;100529.91;;;21.00;59.96
55685;BME280;41883;49.544;8.646;2022-08-01T04:05:55;100534.03;;;21.03;59.73
55685;BME280;41883;49.544;8.646;2022-08-01T04:08:22;100527.19;;;21.07;59.80
55685;BME280;41883;49.544;8.646;2022-08-01T04:10:49;100532.91;;;21.11;59.79
55685;BME280;41883;49.544;8.646;2022-08-01T04:13:15;100540.16;;;21.10;59.82
55685;BME280;41883;49.544;8.646;2022-08-01T04:15:41;100533.38;;;21.08;59.88
55685;BME280;41883;49.544;8.646;2022-08-01T04:18:07;100538.50;;;21.09;60.16
55685;BME280;41883;49.544;8.646;2022-08-01T04:20:33;100535.41;;;21.12;60.39
55685;BME280;41883;49.544;8.646;2022-08-01T04:22:59;100540.94;;;21.17;60.39
55685;BME280;41883;49.544;8.646;2022-08-01T04:25:30;100541.91;;;21.23;60.18
55685;BME280;41883;49.544;8.646;2022-08-01T04:28:00;100540.41;;;21.27;60.11
55685;BME280;41883;49.544;8.646;2022-08-01T04:30:31;100547.63;;;21.33;59.82
55685;BME280;41883;49.544;8.646;2022-08-01T04:33:01;100538.84;;;21.38;59.96
55685;BME280;41883;49.544;8.646;2022-08-01T04:35:29;100542.09;;;21.47;60.05
55685;BME280;41883;49.544;8.646;2022-08-01T04:37:56;100541.00;;;21.54;60.06
55685;BME280;41883;49.544;8.646;2022-08-01T04:40:24;100549.38;;;21.65;59.43
55685;BME280;41883;49.544;8.646;2022-08-01T04:42:51;100543.09;;;21.71;59.58
55685;BME280;41883;49.544;8.646;2022-08-01T04:45:18;100554.38;;;21.79;59.45
55685;BME280;41883;49.544;8.646;2022-08-01T04:47:44;100553.72;;;21.84;59.49
55685;BME280;41883;49.544;8.646;2022-08-01T04:50:13;100553.47;;;21.85;59.60
55685;BME280;41883;49.544;8.646;2022-08-01T04:52:39;100555.25;;;21.92;59.14
55685;BME280;41883;49.544;8.646;2022-08-01T04:55:08;100559.91;;;22.03;59.08
55685;BME280;41883;49.544;8.646;2022-08-01T04:57:37;100564.59;;;22.08;59.18
55685;BME280;41883;49.544;8.646;2022-08-01T05:00:05;100560.50;;;22.05;59.19
55685;BME280;41883;49.544;8.646;2022-08-01T05:02:32;100567.06;;;22.09;59.39
55685;BME280;41883;49.544;8.646;2022-08-01T05:04:59;100563.81;;;22.19;59.14
55685;BME280;41883;49.544;8.646;2022-08-01T05:07:25;100568.94;;;22.27;58.99
55685;BME280;41883;49.544;8.646;2022-08-01T05:09:51;100562.88;;;22.32;58.64
55685;BME280;41883;49.544;8.646;2022-08-01T05:12:17;100561.13;;;22.37;58.55
55685;BME280;41883;49.544;8.646;2022-08-01T05:14:44;100559.53;;;22.48;58.37
55685;BME280;41883;49.544;8.646;2022-08-01T05:17:11;100567.50;;;22.55;58.35
55685;BME280;41883;49.544;8.646;2022-08-01T05:19:38;100566.13;;;22.64;58.44
55685;BME280;41883;49.544;8.646;2022-08-01T05:22:07;100563.34;;;22.82;58.11
55685;BME280;41883;49.544;8.646;2022-08-01T05:24:34;100564.44;;;22.93;58.13
55685;BME280;41883;49.544;8.646;2022-08-01T05:27:01;100570.22;;;23.08;57.70
55685;BME280;41883;49.544;8.646;2022-08-01T05:29:28;100572.44;;;23.23;57.39
55685;BME280;41883;49.544;8.646;2022-08-01T05:31:56;100568.34;;;23.32;57.01
55685;BME280;41883;49.544;8.646;2022-08-01T05:34:24;100568.22;;;23.39;56.69
55685;BME280;41883;49.544;8.646;2022-08-01T05:36:50;100571.75;;;23.40;56.53
55685;BME280;41883;49.544;8.646;2022-08-01T05:39:16;100570.34;;;23.37;56.14
55685;BME280;41883;49.544;8.646;2022-08-01T05:41:43;100576.44;;;23.44;56.02
55685;BME280;41883;49.544;8.646;2022-08-01T05:44:09;100574.44;;;23.51;56.15
55685;BME280;41883;49.544;8.646;2022-08-01T05:46:35;100577.94;;;23.64;55.97
55685;BME280;41883;49.544;8.646;2022-08-01T05:49:03;100582.28;;;23.65;55.99
55685;BME280;41883;49.544;8.646;2022-08-01T05:51:29;100579.81;;;23.63;55.74
55685;BME280;41883;49.544;8.646;2022-08-01T05:53:57;100585.09;;;23.70;55.55
55685;BME280;41883;49.544;8.646;2022-08-01T05:56:23;100579.69;;;23.82;55.35
55685;BME280;41883;49.544;8.646;2022-08-01T05:58:51;100575.09;;;23.94;54.95
55685;BME280;41883;49.544;8.646;2022-08-01T06:01:18;100580.97;;;23.91;54.73
55685;BME280;41883;49.544;8.646;2022-08-01T06:03:45;100587.28;;;23.97;54.67
55685;BME280;41883;49.544;8.646;2022-08-01T06:06:12;100586.44;;;24.08;54.59
55685;BME280;41883;49.544;8.646;2022-08-01T06:08:39;100593.47;;;24.09;54.47
55685;BME280;41883;49.544;8.646;2022-08-01T06:11:06;100593.97;;;24.06;54.63
55685;BME280;41883;49.544;8.646;2022-08-01T06:13:31;100591.88;;;23.96;54.79
55685;BME280;41883;49.544;8.646;2022-08-01T06:15:57;100600.72;;;23.80;55.04
55685;BME280;41883;49.544;8.646;2022-08-01T06:18:23;100599.19;;;23.60;55.57
55685;BME280;41883;49.544;8.646;2022-08-01T06:20:49;100604.59;;;23.48;55.79
55685;BME280;41883;49.544;8.646;2022-08-01T06:23:16;100602.59;;;23.44;56.08
55685;BME280;41883;49.544;8.646;2022-08-01T06:25:43;100607.78;;;23.34;56.15
55685;BME280;41883;49.544;8.646;2022-08-01T06:28:09;100605.19;;;23.27;56.49
55685;BME280;41883;49.544;8.646;2022-08-01T06:30:37;100606.00;;;23.27;56.21
55685;BME280;41883;49.544;8.646;2022-08-01T06:33:04;100607.41;;;23.30;56.93
55685;BME280;41883;49.544;8.646;2022-08-01T06:35:30;100613.72;;;23.36;56.87
55685;BME280;41883;49.544;8.646;2022-08-01T06:37:57;100610.31;;;23.64;56.15
55685;BME280;41883;49.544;8.646;2022-08-01T06:40:24;100614.75;;;24.05;55.43
55685;BME280;41883;49.544;8.646;2022-08-01T06:42:52;100617.72;;;24.32;54.92
55685;BME280;41883;49.544;8.646;2022-08-01T06:45:18;100615.53;;;24.58;54.40
55685;BME280;41883;49.544;8.646;2022-08-01T06:47:47;100620.88;;;24.70;53.85
55685;BME280;41883;49.544;8.646;2022-08-01T06:50:12;100619.38;;;24.62;53.31
55685;BME280;41883;49.544;8.646;2022-08-01T06:52:40;100620.88;;;24.70;53.12
55685;BME280;41883;49.544;8.646;2022-08-01T06:55:06;100623.63;;;24.87;52.97
55685;BME280;41883;49.544;8.646;2022-08-01T06:57:32;100622.97;;;24.96;52.58
55685;BME280;41883;49.544;8.646;2022-08-01T07:00:03;100626.16;;;24.93;52.54
55685;BME280;41883;49.544;8.646;2022-08-01T07:02:32;100626.41;;;24.92;52.34
55685;BME280;41883;49.544;8.646;2022-08-01T07:04:58;100629.63;;;25.06;52.34
55685;BME280;41883;49.544;8.646;2022-08-01T07:07:26;100630.00;;;25.14;51.98
55685;BME280;41883;49.544;8.646;2022-08-01T07:09:52;100627.81;;;25.11;51.61
55685;BME280;41883;49.544;8.646;2022-08-01T07:12:18;100632.59;;;25.21;51.79
55685;BME280;41883;49.544;8.646;2022-08-01T07:14:45;100629.41;;;25.41;51.26
55685;BME280;41883;49.544;8.646;2022-08-01T07:17:10;100626.97;;;25.61;51.15
55685;BME280;41883;49.544;8.646;2022-08-01T07:19:37;100625.94;;;25.84;50.55
55685;BME280;41883;49.544;8.646;2022-08-01T07:22:03;100630.75;;;25.99;50.41
55685;BME280;41883;49.544;8.646;2022-08-01T07:24:29;100628.31;;;26.20;50.10
55685;BME280;41883;49.544;8.646;2022-08-01T07:26:56;100625.47;;;26.32;50.10
55685;BME280;41883;49.544;8.646;2022-08-01T07:29:26;100624.84;;;26.52;49.88
55685;BME280;41883;49.544;8.646;2022-08-01T07:31:54;100619.91;;;27.03;49.41
55685;BME280;41883;49.544;8.646;2022-08-01T07:34:22;100614.84;;;27.44;48.86
55685;BME280;41883;49.544;8.646;2022-08-01T07:36:50;100612.66;;;27.93;48.10
55685;BME280;41883;49.544;8.646;2022-08-01T07:39:16;100610.03;;;28.14;47.06
55685;BME280;41883;49.544;8.646;2022-08-01T07:41:45;100611.56;;;28.78;45.93
55685;BME280;41883;49.544;8.646;2022-08-01T07:44:11;100607.19;;;29.38;44.62
55685;BME280;41883;49.544;8.646;2022-08-01T07:46:37;100611.38;;;30.06;44.29
55685;BME280;41883;49.544;8.646;2022-08-01T07:49:03;100615.06;;;30.31;44.15
55685;BME280;41883;49.544;8.646;2022-08-01T07:51:29;100602.50;;;30.74;43.18
55685;BME280;41883;49.544;8.646;2022-08-01T07:53:55;100611.97;;;31.21;41.47
55685;BME280;41883;49.544;8.646;2022-08-01T07:56:21;100602.66;;;31.51;40.87
55685;BME280;41883;49.544;8.646;2022-08-01T07:58:50;100598.81;;;32.01;40.67
55685;BME280;41883;49.544;8.646;2022-08-01T08:01:16;100601.56;;;32.20;38.21
55685;BME280;41883;49.544;8.646;2022-08-01T08:03:43;100604.31;;;32.76;37.74
55685;BME280;41883;49.544;8.646;2022-08-01T08:06:10;100596.56;;;33.30;35.98
55685;BME280;41883;49.544;8.646;2022-08-01T08:08:39;100599.00;;;33.87;33.79
55685;BME280;41883;49.544;8.646;2022-08-01T08:11:05;100600.56;;;34.30;33.53
55685;BME280;41883;49.544;8.646;2022-08-01T08:13:31;100607.31;;;34.60;33.04
55685;BME280;41883;49.544;8.646;2022-08-01T08:15:57;100605.06;;;34.62;33.20
55685;BME280;41883;49.544;8.646;2022-08-01T08:18:25;100605.19;;;34.07;33.35
55685;BME280;41883;49.544;8.646;2022-08-01T08:20:51;100604.75;;;33.44;34.05
55685;BME280;41883;49.544;8.646;2022-08-01T08:23:18;100614.81;;;32.31;35.02
55685;BME280;41883;49.544;8.646;2022-08-01T08:26:02;100612.53;;;31.71;35.55
55685;BME280;41883;49.544;8.646;2022-08-01T08:28:29;100606.91;;;31.33;36.47
55685;BME280;41883;49.544;8.646;2022-08-01T08:30:55;100612.28;;;30.85;36.88
55685;BME280;41883;49.544;8.646;2022-08-01T08:33:21;100607.28;;;30.58;37.73
55685;BME280;41883;49.544;8.646;2022-08-01T08:35:48;100604.81;;;30.57;37.41
55685;BME280;41883;49.544;8.646;2022-08-01T08:38:14;100604.88;;;30.46;37.58
55685;BME280;41883;49.544;8.646;2022-08-01T08:40:40;100605.19;;;30.79;37.92
55685;BME280;41883;49.544;8.646;2022-08-01T08:43:06;100605.31;;;30.64;37.38
55685;BME280;41883;49.544;8.646;2022-08-01T08:45:33;100604.78;;;30.12;38.08
55685;BME280;41883;49.544;8.646;2022-08-01T08:48:00;100606.75;;;30.01;38.54
55685;BME280;41883;49.544;8.646;2022-08-01T08:50:27;100599.50;;;31.10;37.78
55685;BME280;41883;49.544;8.646;2022-08-01T08:52:54;100601.19;;;32.26;36.28
55685;BME280;41883;49.544;8.646;2022-08-01T08:55:22;100600.84;;;33.78;34.72
55685;BME280;41883;49.544;8.646;2022-08-01T08:57:53;100601.72;;;34.96;31.89
55685;BME280;41883;49.544;8.646;2022-08-01T09:00:19;100596.34;;;34.60;32.46
55685;BME280;41883;49.544;8.646;2022-08-01T09:02:47;100587.72;;;34.39;32.89
55685;BME280;41883;49.544;8.646;2022-08-01T09:05:24;100591.78;;;35.71;31.29
55685;BME280;41883;49.544;8.646;2022-08-01T09:07:53;100600.78;;;36.90;28.85
55685;BME280;41883;49.544;8.646;2022-08-01T09:10:21;100590.09;;;37.74;28.38
55685;BME280;41883;49.544;8.646;2022-08-01T09:13:08;100593.63;;;38.25;28.07
55685;BME280;41883;49.544;8.646;2022-08-01T09:15:46;100595.88;;;38.53;27.58
55685;BME280;41883;49.544;8.646;2022-08-01T09:18:37;100589.81;;;38.93;26.93
55685;BME280;41883;49.544;8.646;2022-08-01T09:23:41;100593.06;;;39.07;25.16
55685;BME280;41883;49.544;8.646;2022-08-01T09:26:17;100592.94;;;38.71;25.62
55685;BME280;41883;49.544;8.646;2022-08-01T09:28:47;100605.03;;;39.12;24.72
55685;BME280;41883;49.544;8.646;2022-08-01T09:31:17;100603.16;;;38.91;25.31
55685;BME280;41883;49.544;8.646;2022-08-01T09:33:52;100602.09;;;38.50;25.82
55685;BME280;41883;49.544;8.646;2022-08-01T09:36:21;100605.84;;;38.03;26.63
55685;BME280;41883;49.544;8.646;2022-08-01T09:38:51;100600.16;;;36.76;27.42
55685;BME280;41883;49.544;8.646;2022-08-01T09:41:28;100603.78;;;36.02;28.25
55685;BME280;41883;49.544;8.646;2022-08-01T09:43:59;100611.00;;;35.63;28.47
55685;BME280;41883;49.544;8.646;2022-08-01T09:46:25;100609.34;;;34.18;29.70
55685;BME280;41883;49.544;8.646;2022-08-01T09:49:03;100599.22;;;33.49;31.12
55685;BME280;41883;49.544;8.646;2022-08-01T09:51:37;100607.44;;;33.03;32.17
55685;BME280;41883;49.544;8.646;2022-08-01T09:54:06;100603.13;;;32.45;32.72
55685;BME280;41883;49.544;8.646;2022-08-01T09:56:38;100603.28;;;32.15;33.61
55685;BME280;41883;49.544;8.646;2022-08-01T09:59:04;100613.88;;;31.74;34.03
55685;BME280;41883;49.544;8.646;2022-08-01T10:01:47;100611.81;;;31.07;34.95
55685;BME280;41883;49.544;8.646;2022-08-01T10:04:18;100605.75;;;31.10;34.59
55685;BME280;41883;49.544;8.646;2022-08-01T10:06:47;100599.44;;;32.16;34.15
55685;BME280;41883;49.544;8.646;2022-08-01T10:09:31;100595.44;;;33.45;32.34
55685;BME280;41883;49.544;8.646;2022-08-01T10:12:00;100598.94;;;33.04;32.88
55685;BME280;41883;49.544;8.646;2022-08-01T10:14:27;100598.38;;;33.35;31.71
55685;BME280;41883;49.544;8.646;2022-08-01T10:16:53;100595.38;;;32.33;33.04
55685;BME280;41883;49.544;8.646;2022-08-01T10:19:23;100585.59;;;31.84;33.60
55685;BME280;41883;49.544;8.646;2022-08-01T10:21:49;100586.84;;;31.91;34.20
55685;BME280;41883;49.544;8.646;2022-08-01T10:24:18;100592.50;;;32.95;32.64
55685;BME280;41883;49.544;8.646;2022-08-01T10:26:46;100598.03;;;34.56;31.47
55685;BME280;41883;49.544;8.646;2022-08-01T10:29:12;100586.06;;;36.60;28.92
55685;BME280;41883;49.544;8.646;2022-08-01T10:31:38;100582.94;;;37.73;26.72
55685;BME280;41883;49.544;8.646;2022-08-01T10:34:04;100582.38;;;37.89;25.48
55685;BME280;41883;49.544;8.646;2022-08-01T10:36:31;100580.97;;;38.24;25.03
55685;BME280;41883;49.544;8.646;2022-08-01T10:38:59;100582.78;;;38.62;24.97
55685;BME280;41883;49.544;8.646;2022-08-01T10:41:25;100586.63;;;39.89;24.64
55685;BME280;41883;49.544;8.646;2022-08-01T10:43:51;100580.25;;;41.30;23.23
55685;BME280;41883;49.544;8.646;2022-08-01T10:46:19;100587.72;;;41.77;22.35
55685;BME280;41883;49.544;8.646;2022-08-01T10:51:15;100585.44;;;42.18;21.30
55685;BME280;41883;49.544;8.646;2022-08-01T10:53:50;100581.91;;;43.52;20.56
55685;BME280;41883;49.544;8.646;2022-08-01T10:56:15;100575.25;;;44.47;19.32
55685;BME280;41883;49.544;8.646;2022-08-01T10:58:44;100572.22;;;42.73;20.62
55685;BME280;41883;49.544;8.646;2022-08-01T11:03:46;100577.19;;;41.51;21.44
55685;BME280;41883;49.544;8.646;2022-08-01T11:06:26;100573.69;;;41.06;21.83
55685;BME280;41883;49.544;8.646;2022-08-01T11:08:54;100575.22;;;39.54;22.85
55685;BME280;41883;49.544;8.646;2022-08-01T11:11:21;100567.63;;;40.16;22.40
55685;BME280;41883;49.544;8.646;2022-08-01T11:16:54;100562.59;;;41.54;21.17
55685;BME280;41883;49.544;8.646;2022-08-01T11:19:22;100564.97;;;39.42;22.96
55685;BME280;41883;49.544;8.646;2022-08-01T11:33:07;100547.34;;;38.77;23.96
55685;BME280;41883;49.544;8.646;2022-08-01T11:35:35;100551.19;;;39.95;22.68
55685;BME280;41883;49.544;8.646;2022-08-01T11:38:24;100547.56;;;41.39;21.87
55685;BME280;41883;49.544;8.646;2022-08-01T11:41:26;100551.13;;;39.67;23.13
55685;BME280;41883;49.544;8.646;2022-08-01T11:47:05;100533.94;;;37.70;24.48
55685;BME280;41883;49.544;8.646;2022-08-01T11:49:45;100540.84;;;39.18;23.70
55685;BME280;41883;49.544;8.646;2022-08-01T11:57:13;100534.47;;;42.49;19.88
55685;BME280;41883;49.544;8.646;2022-08-01T11:59:47;100532.03;;;44.30;18.79
55685;BME280;41883;49.544;8.646;2022-08-01T12:02:30;100538.03;;;44.33;17.86
55685;BME280;41883;49.544;8.646;2022-08-01T12:04:59;100528.25;;;44.90;17.54
55685;BME280;41883;49.544;8.646;2022-08-01T12:07:28;100525.22;;;45.65;17.82
55685;BME280;41883;49.544;8.646;2022-08-01T12:10:00;100531.22;;;44.30;18.07
55685;BME280;41883;49.544;8.646;2022-08-01T12:12:27;100538.50;;;44.04;18.38
55685;BME280;41883;49.544;8.646;2022-08-01T12:14:59;100533.81;;;42.36;19.76
55685;BME280;41883;49.544;8.646;2022-08-01T12:17:48;100525.00;;;41.41;20.39
55685;BME280;41883;49.544;8.646;2022-08-01T12:20:19;100526.91;;;39.76;21.60
55685;BME280;41883;49.544;8.646;2022-08-01T12:22:46;100518.47;;;37.99;23.30
55685;BME280;41883;49.544;8.646;2022-08-01T12:25:17;100512.34;;;37.04;24.13
55685;BME280;41883;49.544;8.646;2022-08-01T12:27:45;100512.34;;;35.96;25.61
55685;BME280;41883;49.544;8.646;2022-08-01T12:30:13;100513.69;;;35.41;26.14
55685;BME280;41883;49.544;8.646;2022-08-01T12:32:41;100513.75;;;35.10;26.73
55685;BME280;41883;49.544;8.646;2022-08-01T12:35:16;100512.78;;;34.83;27.81
55685;BME280;41883;49.544;8.646;2022-08-01T12:37:51;100507.94;;;34.35;27.88
55685;BME280;41883;49.544;8.646;2022-08-01T12:40:26;100508.69;;;33.91;28.68
55685;BME280;41883;49.544;8.646;2022-08-01T12:42:54;100509.66;;;33.58;29.30
55685;BME280;41883;49.544;8.646;2022-08-01T12:45:26;100509.94;;;33.15;29.96
55685;BME280;41883;49.544;8.646;2022-08-01T12:47:54;100504.41;;;32.88;30.62
55685;BME280;41883;49.544;8.646;2022-08-01T12:50:25;100501.25;;;32.81;30.96
55685;BME280;41883;49.544;8.646;2022-08-01T12:52:53;100504.31;;;32.93;31.06
55685;BME280;41883;49.544;8.646;2022-08-01T12:55:23;100498.63;;;32.89;30.55
55685;BME280;41883;49.544;8.646;2022-08-01T12:58:11;100497.06;;;33.16;30.91
55685;BME280;41883;49.544;8.646;2022-08-01T13:00:37;100496.56;;;33.28;31.11
55685;BME280;41883;49.544;8.646;2022-08-01T13:08:31;100495.09;;;33.86;30.37
55685;BME280;41883;49.544;8.646;2022-08-01T13:11:12;100492.97;;;33.82;30.28
55685;BME280;41883;49.544;8.646;2022-08-01T13:16:20;100495.56;;;33.24;29.72
55685;BME280;41883;49.544;8.646;2022-08-01T13:18:53;100496.66;;;32.62;30.67
55685;BME280;41883;49.544;8.646;2022-08-01T13:21:30;100494.47;;;32.26;31.02
55685;BME280;41883;49.544;8.646;2022-08-01T13:24:12;100491.25;;;32.05;32.01
55685;BME280;41883;49.544;8.646;2022-08-01T13:29:09;100477.13;;;31.98;31.65
55685;BME280;41883;49.544;8.646;2022-08-01T13:31:37;100480.53;;;32.09;32.07
55685;BME280;41883;49.544;8.646;2022-08-01T13:34:04;100482.50;;;32.22;31.65
55685;BME280;41883;49.544;8.646;2022-08-01T13:36:31;100492.53;;;32.46;32.13
55685;BME280;41883;49.544;8.646;2022-08-01T13:38:57;100474.94;;;32.52;31.10
55685;BME280;41883;49.544;8.646;2022-08-01T13:41:43;100481.22;;;32.52;31.41
55685;BME280;41883;49.544;8.646;2022-08-01T13:44:09;100473.81;;;32.53;30.99
55685;BME280;41883;49.544;8.646;2022-08-01T13:46:45;100478.84;;;32.78;31.13
55685;BME280;41883;49.544;8.646;2022-08-01T13:49:13;100478.88;;;32.92;30.86